11°C Temp
11°C Dewpoint
100% Humidity
Temperature
3 KM/H
2 MPH
2 KTS
120°
East South
East

Wind Speed
Clear
Conditions
Pressure 1026.08 (hPa) - 30.3 (in)
Visibility 5.0 (mi) - 8.0 (km)

Current Conditions
LIRP
Location Pisa 30(km)
Metar :LIRP 130515Z 12002KT 8000 NSC 11/11 Q1026 NOSIG
Sat 13th April 06:15 am

Airport
  Metar Aviation API Data Provided by https://www.checkwx.com/ PHP scripts by weather34.com ©2024